createdAt,value
2022-11-29T00:00:33.468Z,8.89
2022-11-29T00:03:10.120Z,8.91
2022-11-29T00:05:48.857Z,8.91
2022-11-29T00:08:29.560Z,8.90
2022-11-29T00:11:16.575Z,8.91
2022-11-29T00:13:53.507Z,8.89
2022-11-29T00:16:25.314Z,8.90
2022-11-29T00:19:00.360Z,8.91
2022-11-29T00:21:39.269Z,8.91
2022-11-29T00:24:15.700Z,8.91
2022-11-29T00:26:56.384Z,8.89
2022-11-29T00:29:27.319Z,8.90
2022-11-29T00:31:57.244Z,8.90
2022-11-29T00:37:25.258Z,8.89
2022-11-29T00:40:02.035Z,8.89
2022-11-29T00:42:43.126Z,8.87
2022-11-29T00:45:16.551Z,8.87
2022-11-29T00:47:50.518Z,8.88
2022-11-29T00:50:23.675Z,8.88
2022-11-29T00:53:00.517Z,8.88
2022-11-29T00:55:32.911Z,8.87
2022-11-29T00:58:08.076Z,8.87
2022-11-29T01:00:43.029Z,8.84
2022-11-29T01:03:17.933Z,8.87
2022-11-29T01:05:54.364Z,8.87
2022-11-29T01:08:35.321Z,8.84
2022-11-29T01:11:10.005Z,8.86
2022-11-29T01:13:48.583Z,8.85
2022-11-29T01:16:23.036Z,8.87
2022-11-29T01:18:52.074Z,8.87
2022-11-29T01:21:27.204Z,8.88
2022-11-29T01:24:03.660Z,8.88
2022-11-29T01:26:43.114Z,8.88
2022-11-29T01:29:22.987Z,8.89
2022-11-29T01:31:56.971Z,8.89
2022-11-29T01:34:30.834Z,8.88
2022-11-29T01:37:08.101Z,8.88
2022-11-29T01:39:57.565Z,8.88
2022-11-29T01:42:33.692Z,8.87
2022-11-29T01:45:20.122Z,8.87
2022-11-29T01:48:00.585Z,8.87
2022-11-29T01:50:39.143Z,8.88
2022-11-29T01:53:13.540Z,8.87
2022-11-29T01:55:53.847Z,8.88
2022-11-29T01:58:31.164Z,8.87
2022-11-29T02:01:02.758Z,8.88
2022-11-29T02:03:31.284Z,8.89
2022-11-29T02:06:11.825Z,8.89
2022-11-29T02:08:43.823Z,8.90
2022-11-29T02:11:44.752Z,8.91
2022-11-29T02:14:33.403Z,8.91
2022-11-29T02:17:12.396Z,8.91
2022-11-29T02:20:06.795Z,8.92
2022-11-29T02:22:47.347Z,8.93
2022-11-29T02:25:29.543Z,8.93
2022-11-29T02:28:42.775Z,8.92
2022-11-29T02:31:45.650Z,8.92
2022-11-29T02:34:56.807Z,8.90
2022-11-29T02:37:59.732Z,8.87
2022-11-29T02:40:57.424Z,8.88
2022-11-29T02:44:03.711Z,8.88
2022-11-29T02:46:56.258Z,8.88
2022-11-29T02:49:42.041Z,8.89
2022-11-29T02:52:20.622Z,8.90
2022-11-29T02:54:56.256Z,8.91
2022-11-29T02:57:37.166Z,8.93
2022-11-29T03:00:12.523Z,8.91
2022-11-29T03:02:55.570Z,8.91
2022-11-29T03:05:38.104Z,8.93
2022-11-29T03:08:15.131Z,8.92
2022-11-29T03:10:57.369Z,8.93
2022-11-29T03:13:44.497Z,8.93
2022-11-29T03:16:23.463Z,8.95
2022-11-29T03:19:05.482Z,8.94
2022-11-29T03:21:43.764Z,8.94
2022-11-29T03:24:23.196Z,8.93
2022-11-29T03:27:00.578Z,8.94
2022-11-29T03:29:40.434Z,8.94
2022-11-29T03:32:17.279Z,8.95
2022-11-29T03:34:59.917Z,8.95
2022-11-29T03:37:42.821Z,8.96
2022-11-29T03:40:18.895Z,8.96
2022-11-29T03:42:57.747Z,8.96
2022-11-29T03:45:38.198Z,8.95
2022-11-29T03:48:15.958Z,8.96
2022-11-29T03:50:57.012Z,8.95
2022-11-29T03:53:40.151Z,8.97
2022-11-29T03:56:32.569Z,8.97
2022-11-29T03:59:17.948Z,8.97
2022-11-29T04:02:30.362Z,8.96
2022-11-29T04:05:30.277Z,8.96
2022-11-29T04:08:32.521Z,8.96
2022-11-29T04:11:33.074Z,8.95
2022-11-29T04:14:38.591Z,8.94
2022-11-29T04:17:48.794Z,8.95
2022-11-29T04:20:55.956Z,8.95
2022-11-29T04:24:05.383Z,8.95
2022-11-29T04:27:09.300Z,8.93
2022-11-29T04:30:10.629Z,8.94
2022-11-29T04:33:21.589Z,8.93
2022-11-29T04:36:30.516Z,8.95
2022-11-29T04:39:38.810Z,8.95
2022-11-29T04:42:38.083Z,8.95
2022-11-29T04:46:02.353Z,8.96
2022-11-29T04:48:55.659Z,8.97
2022-11-29T04:51:43.203Z,8.98
2022-11-29T04:54:30.506Z,8.99
2022-11-29T04:57:07.337Z,8.99
2022-11-29T04:59:48.834Z,8.99
2022-11-29T05:02:37.666Z,8.99
2022-11-29T05:05:24.992Z,9.01
2022-11-29T05:08:18.023Z,9.01
2022-11-29T05:11:06.418Z,8.99
2022-11-29T05:13:55.512Z,8.99
2022-11-29T05:16:44.555Z,8.99
2022-11-29T05:19:43.631Z,9.00
2022-11-29T05:22:36.719Z,8.98
2022-11-29T05:25:33.636Z,8.98
2022-11-29T05:28:13.774Z,8.96
2022-11-29T05:31:20.665Z,8.96
2022-11-29T05:34:26.365Z,8.97
2022-11-29T05:37:13.128Z,8.96
2022-11-29T05:39:58.695Z,8.96
2022-11-29T05:42:52.811Z,8.95
2022-11-29T05:45:31.775Z,8.95
2022-11-29T05:48:05.889Z,8.94
2022-11-29T05:50:40.716Z,8.93
2022-11-29T05:53:16.754Z,8.93
2022-11-29T05:55:54.053Z,8.92
2022-11-29T05:58:30.745Z,8.91
2022-11-29T06:01:18.711Z,8.90
2022-11-29T06:04:00.195Z,8.90
2022-11-29T06:06:40.366Z,8.88
2022-11-29T06:09:17.218Z,8.87
2022-11-29T06:11:49.738Z,8.85
2022-11-29T06:14:50.219Z,8.85
2022-11-29T06:17:43.145Z,8.85
2022-11-29T06:20:31.477Z,8.85
2022-11-29T06:23:23.726Z,8.82
2022-11-29T06:26:07.534Z,8.83
2022-11-29T06:28:50.559Z,8.82
2022-11-29T06:31:27.971Z,8.83
2022-11-29T06:34:11.496Z,8.81
2022-11-29T06:36:53.410Z,8.78
2022-11-29T06:39:26.526Z,8.79
2022-11-29T06:41:55.650Z,8.77
2022-11-29T06:44:25.839Z,8.78
2022-11-29T06:47:03.367Z,8.77
2022-11-29T06:49:38.191Z,8.75
2022-11-29T06:52:27.925Z,8.75
2022-11-29T06:55:10.253Z,8.74
2022-11-29T06:57:54.827Z,8.74
2022-11-29T07:00:26.946Z,8.73
2022-11-29T07:03:13.433Z,8.73
2022-11-29T07:05:44.143Z,8.71
2022-11-29T07:08:25.159Z,8.71
2022-11-29T07:11:03.057Z,8.70
2022-11-29T07:13:34.384Z,8.69
2022-11-29T07:16:11.225Z,8.69
2022-11-29T07:18:54.679Z,8.68
2022-11-29T07:21:47.956Z,8.68
2022-11-29T07:24:33.025Z,8.67
2022-11-29T07:27:12.765Z,8.66
2022-11-29T07:29:49.757Z,8.65
2022-11-29T07:32:28.526Z,8.66
2022-11-29T07:35:05.614Z,8.67
2022-11-29T07:37:45.914Z,8.66
2022-11-29T07:40:20.729Z,8.66
2022-11-29T07:43:08.190Z,8.66
2022-11-29T07:45:38.017Z,8.66
2022-11-29T07:48:07.194Z,8.66
2022-11-29T07:50:37.099Z,8.65
2022-11-29T07:53:18.159Z,8.67
2022-11-29T07:55:50.335Z,8.66
2022-11-29T07:58:22.075Z,8.66
2022-11-29T08:00:50.990Z,8.66
2022-11-29T08:03:24.621Z,8.66
2022-11-29T08:05:53.700Z,8.66
2022-11-29T08:08:25.591Z,8.67
2022-11-29T08:10:58.619Z,8.65
2022-11-29T08:13:29.355Z,8.65
2022-11-29T08:15:59.902Z,8.66
2022-11-29T08:18:29.798Z,8.67
2022-11-29T08:21:07.000Z,8.67
2022-11-29T08:23:36.167Z,8.68
2022-11-29T08:26:05.762Z,8.68
2022-11-29T08:28:35.981Z,8.70
2022-11-29T08:31:10.184Z,8.69
2022-11-29T08:33:44.932Z,8.70
2022-11-29T08:36:14.803Z,8.72
2022-11-29T08:38:44.480Z,8.73
2022-11-29T08:41:16.322Z,8.73
2022-11-29T08:43:51.457Z,8.75
2022-11-29T08:46:21.202Z,8.76
2022-11-29T08:48:51.006Z,8.78
2022-11-29T08:51:20.345Z,8.79
2022-11-29T08:53:53.999Z,8.81
2022-11-29T08:57:16.498Z,8.81
2022-11-29T08:59:17.126Z,8.84
2022-11-29T09:01:46.789Z,8.86
2022-11-29T09:04:18.096Z,8.87
2022-11-29T09:06:49.870Z,8.89
2022-11-29T09:09:19.364Z,8.89
2022-11-29T09:11:49.754Z,8.89
2022-11-29T09:14:22.224Z,8.89
2022-11-29T09:16:50.965Z,8.88
2022-11-29T09:19:20.742Z,8.88
2022-11-29T09:21:50.555Z,8.88
2022-11-29T09:24:21.290Z,8.87
2022-11-29T09:26:49.852Z,8.87
2022-11-29T09:29:23.176Z,8.88
2022-11-29T09:31:53.237Z,8.85
2022-11-29T09:34:22.710Z,8.85
2022-11-29T09:36:52.320Z,8.86
2022-11-29T09:39:21.433Z,8.85
2022-11-29T09:42:10.262Z,8.87
2022-11-29T09:44:56.196Z,8.87
2022-11-29T09:47:39.576Z,8.87
2022-11-29T09:50:26.080Z,8.86
2022-11-29T09:53:07.570Z,8.81
2022-11-29T09:55:57.359Z,8.79
2022-11-29T09:58:30.465Z,8.77
2022-11-29T10:01:07.270Z,8.74
2022-11-29T10:03:47.305Z,8.73
2022-11-29T10:06:26.330Z,8.72
2022-11-29T10:09:01.297Z,8.73
2022-11-29T10:11:37.240Z,8.75
2022-11-29T10:14:16.229Z,8.77
2022-11-29T10:16:55.531Z,8.76
2022-11-29T10:19:33.276Z,8.77
2022-11-29T10:22:09.546Z,8.76
2022-11-29T10:24:42.880Z,8.75
2022-11-29T10:27:18.425Z,8.77
2022-11-29T10:29:51.376Z,8.78
2022-11-29T10:32:24.855Z,8.77
2022-11-29T10:34:57.566Z,8.79
2022-11-29T10:37:32.606Z,8.79
2022-11-29T10:40:05.557Z,8.80
2022-11-29T10:42:49.822Z,8.81
2022-11-29T10:45:33.191Z,8.84
2022-11-29T10:48:12.437Z,8.85
2022-11-29T10:50:44.719Z,8.87
2022-11-29T10:53:17.379Z,8.87
2022-11-29T10:55:51.937Z,8.90
2022-11-29T10:58:28.641Z,8.92
2022-11-29T11:01:01.570Z,8.94
2022-11-29T11:03:37.465Z,8.94
2022-11-29T11:06:14.599Z,8.95
2022-11-29T11:08:47.455Z,8.96
2022-11-29T11:11:26.532Z,8.95
2022-11-29T11:14:03.751Z,8.93
2022-11-29T11:16:37.721Z,8.91
2022-11-29T11:19:27.916Z,8.91
2022-11-29T11:21:58.438Z,8.89
2022-11-29T11:24:31.724Z,8.89
2022-11-29T11:27:02.342Z,8.89
2022-11-29T11:29:37.349Z,8.88
2022-11-29T11:32:17.439Z,8.88
2022-11-29T11:34:54.861Z,8.88
2022-11-29T11:37:27.319Z,8.88
2022-11-29T11:39:58.081Z,8.89
2022-11-29T11:42:40.889Z,8.88
2022-11-29T11:45:31.407Z,8.89
2022-11-29T11:48:04.132Z,8.90
2022-11-29T11:50:45.245Z,8.92
2022-11-29T11:53:22.892Z,8.94
2022-11-29T11:55:59.463Z,8.95
2022-11-29T11:58:31.382Z,8.96
2022-11-29T12:01:06.099Z,8.97
2022-11-29T12:03:49.489Z,8.97
2022-11-29T12:06:43.246Z,8.97
2022-11-29T12:09:21.426Z,8.99
2022-11-29T12:12:04.641Z,8.99
2022-11-29T12:14:42.629Z,9.01
2022-11-29T12:17:21.521Z,9.00
2022-11-29T12:20:06.503Z,8.99
2022-11-29T12:22:46.613Z,8.99
2022-11-29T12:25:23.811Z,9.00
2022-11-29T12:27:53.314Z,9.01
2022-11-29T12:30:22.755Z,9.02
2022-11-29T12:33:04.316Z,8.99
2022-11-29T12:35:46.820Z,8.97
2022-11-29T12:38:33.359Z,8.97
2022-11-29T12:41:13.060Z,8.97
2022-11-29T12:43:54.914Z,8.97
2022-11-29T12:46:26.712Z,8.98
2022-11-29T12:49:02.559Z,8.98
2022-11-29T12:51:45.820Z,8.97
2022-11-29T12:54:38.040Z,8.98
2022-11-29T12:57:16.374Z,8.99
2022-11-29T13:00:07.315Z,8.99
2022-11-29T13:02:48.644Z,8.98
2022-11-29T13:05:37.971Z,8.98
2022-11-29T13:08:30.128Z,8.98
2022-11-29T13:11:14.530Z,8.98
2022-11-29T13:13:46.637Z,8.99
2022-11-29T13:16:33.266Z,9.00
2022-11-29T13:19:12.479Z,8.99
2022-11-29T13:21:48.150Z,8.99
2022-11-29T13:24:25.016Z,8.99
2022-11-29T13:26:57.095Z,9.00
2022-11-29T13:29:28.225Z,9.00
2022-11-29T13:31:58.958Z,9.00
2022-11-29T13:34:33.453Z,9.00
2022-11-29T13:37:14.960Z,8.99
2022-11-29T13:39:58.266Z,8.99
2022-11-29T13:42:40.302Z,8.98
2022-11-29T13:45:22.739Z,8.98
2022-11-29T13:47:53.373Z,8.99
2022-11-29T13:50:41.045Z,9.00
2022-11-29T13:53:16.989Z,9.01
2022-11-29T13:55:48.763Z,9.01
2022-11-29T13:58:35.855Z,9.02
2022-11-29T14:01:09.919Z,9.02
2022-11-29T14:03:41.135Z,9.02
2022-11-29T14:06:22.208Z,9.01
2022-11-29T14:09:26.149Z,9.01
2022-11-29T14:12:02.704Z,9.01
2022-11-29T14:14:38.773Z,9.01
2022-11-29T14:17:33.918Z,9.00
2022-11-29T14:20:44.546Z,9.00
2022-11-29T14:23:28.160Z,8.98
2022-11-29T14:26:28.641Z,8.99
2022-11-29T14:29:00.311Z,8.98
2022-11-29T14:31:55.223Z,8.97
2022-11-29T14:34:51.345Z,8.96
2022-11-29T14:37:34.904Z,8.96
2022-11-29T14:40:17.019Z,8.96
2022-11-29T14:42:49.471Z,8.96
2022-11-29T14:45:31.164Z,8.96
2022-11-29T14:48:03.124Z,8.96
2022-11-29T14:50:37.325Z,8.95
2022-11-29T14:53:07.909Z,8.95
2022-11-29T14:55:38.846Z,8.94
2022-11-29T14:58:21.242Z,8.93
2022-11-29T15:01:10.407Z,8.89
2022-11-29T15:03:50.389Z,8.87
2022-11-29T15:06:26.264Z,8.84
2022-11-29T15:09:05.230Z,8.83
2022-11-29T15:11:57.792Z,8.84
2022-11-29T15:14:37.207Z,8.84
2022-11-29T15:17:20.981Z,8.85
2022-11-29T15:20:20.243Z,8.83
2022-11-29T15:22:54.284Z,8.84
2022-11-29T15:25:26.660Z,8.83
2022-11-29T15:27:58.221Z,8.82
2022-11-29T15:30:37.778Z,8.82
2022-11-29T15:33:24.353Z,8.84
2022-11-29T15:36:05.808Z,8.83
2022-11-29T15:38:45.599Z,8.85
2022-11-29T15:41:25.277Z,8.84
2022-11-29T15:44:00.490Z,8.83
2022-11-29T15:46:35.046Z,8.82
2022-11-29T15:49:17.168Z,8.81
2022-11-29T15:51:51.966Z,8.82
2022-11-29T15:54:31.295Z,8.79
2022-11-29T15:57:04.116Z,8.78
2022-11-29T15:59:39.500Z,8.76
2022-11-29T16:02:17.825Z,8.74
2022-11-29T16:04:50.664Z,8.72
2022-11-29T16:07:24.501Z,8.72
2022-11-29T16:10:03.561Z,8.71
2022-11-29T16:12:35.940Z,8.70
2022-11-29T16:15:27.258Z,8.68
2022-11-29T16:17:58.763Z,8.67
2022-11-29T16:20:31.108Z,8.65
2022-11-29T16:23:16.921Z,8.64
2022-11-29T16:25:57.475Z,8.64
2022-11-29T16:28:37.604Z,8.63
2022-11-29T16:31:18.132Z,8.63
2022-11-29T16:34:22.856Z,8.63
2022-11-29T16:37:08.518Z,8.62
2022-11-29T16:39:43.986Z,8.63
2022-11-29T16:42:29.347Z,8.62
2022-11-29T16:45:29.934Z,8.61
2022-11-29T16:48:16.345Z,8.61
2022-11-29T16:51:09.258Z,8.59
2022-11-29T16:53:52.282Z,8.58
2022-11-29T16:56:31.735Z,8.57
2022-11-29T16:59:20.945Z,8.55
2022-11-29T17:02:02.576Z,8.54
2022-11-29T17:04:39.873Z,8.53
2022-11-29T17:07:16.212Z,8.54
2022-11-29T17:09:46.308Z,8.53
2022-11-29T17:12:20.073Z,8.53
2022-11-29T17:14:52.487Z,8.51
2022-11-29T17:17:24.275Z,8.51
2022-11-29T17:19:57.321Z,8.50
2022-11-29T17:22:30.980Z,8.49
2022-11-29T17:25:05.491Z,8.48
2022-11-29T17:27:42.975Z,8.47
2022-11-29T17:30:19.400Z,8.45
2022-11-29T17:32:57.305Z,8.41
2022-11-29T17:35:30.292Z,8.37
2022-11-29T17:38:05.893Z,8.35
2022-11-29T17:40:44.069Z,8.34
2022-11-29T17:43:23.410Z,8.33
2022-11-29T17:45:58.085Z,8.32
2022-11-29T17:48:35.770Z,8.31
2022-11-29T17:51:29.258Z,8.30
2022-11-29T17:54:11.158Z,8.30
2022-11-29T17:56:45.203Z,8.29
2022-11-29T17:59:16.407Z,8.30
2022-11-29T18:01:47.757Z,8.30
2022-11-29T18:04:25.050Z,8.30
2022-11-29T18:07:00.245Z,8.29
2022-11-29T18:09:35.268Z,8.30
2022-11-29T18:12:10.255Z,8.29
2022-11-29T18:14:47.845Z,8.29
2022-11-29T18:17:21.198Z,8.27
2022-11-29T18:20:00.324Z,8.27
2022-11-29T18:22:33.560Z,8.25
2022-11-29T18:25:37.060Z,8.23
2022-11-29T18:28:07.974Z,8.22
2022-11-29T18:30:41.792Z,8.19
2022-11-29T18:33:22.184Z,8.17
2022-11-29T18:35:58.677Z,8.15
2022-11-29T18:38:31.915Z,8.14
2022-11-29T18:41:17.229Z,8.14
2022-11-29T18:43:49.541Z,8.12
2022-11-29T18:46:30.222Z,8.11
2022-11-29T18:49:15.135Z,8.10
2022-11-29T18:51:48.148Z,8.06
2022-11-29T18:54:22.536Z,8.04
2022-11-29T18:56:59.109Z,8.00
2022-11-29T18:59:29.927Z,7.99
2022-11-29T19:02:09.379Z,7.96
2022-11-29T19:04:43.228Z,7.94
2022-11-29T19:07:17.947Z,7.93
2022-11-29T19:09:52.322Z,7.92
2022-11-29T19:12:23.708Z,7.92
2022-11-29T19:14:57.327Z,7.90
2022-11-29T19:17:30.654Z,7.90
2022-11-29T19:20:02.162Z,7.89
2022-11-29T19:22:36.763Z,7.90
2022-11-29T19:25:09.367Z,7.90
2022-11-29T19:27:43.951Z,7.90
2022-11-29T19:30:17.661Z,7.91
2022-11-29T19:32:52.869Z,7.90
2022-11-29T19:35:26.198Z,7.91
2022-11-29T19:37:58.815Z,7.91
2022-11-29T19:40:41.018Z,7.90
2022-11-29T19:43:13.019Z,7.90
2022-11-29T19:45:48.395Z,7.88
2022-11-29T19:48:21.914Z,7.86
2022-11-29T19:50:54.526Z,7.86
2022-11-29T19:53:30.750Z,7.86
2022-11-29T19:56:07.164Z,7.83
2022-11-29T19:58:45.363Z,7.84
2022-11-29T20:01:23.019Z,7.82
2022-11-29T20:04:06.652Z,7.80
2022-11-29T20:06:39.775Z,7.81
2022-11-29T20:09:17.374Z,7.80
2022-11-29T20:11:48.544Z,7.80
2022-11-29T20:14:20.539Z,7.80
2022-11-29T20:17:01.207Z,7.78
2022-11-29T20:19:38.926Z,7.80
2022-11-29T20:22:13.906Z,7.80
2022-11-29T20:24:47.235Z,7.77
2022-11-29T20:27:23.984Z,7.75
2022-11-29T20:29:55.195Z,7.73
2022-11-29T20:32:31.673Z,7.73
2022-11-29T20:35:06.998Z,7.73
2022-11-29T20:38:06.053Z,7.72
2022-11-29T20:40:49.956Z,7.73
2022-11-29T20:43:32.436Z,7.72
2022-11-29T20:46:06.850Z,7.70
2022-11-29T20:48:38.326Z,7.70
2022-11-29T20:51:16.323Z,7.68
2022-11-29T20:53:50.931Z,7.66
2022-11-29T20:56:35.281Z,7.67
2022-11-29T20:59:16.995Z,7.65
2022-11-29T21:01:49.562Z,7.65
2022-11-29T21:04:27.096Z,7.62
2022-11-29T21:07:08.335Z,7.60
2022-11-29T21:09:41.074Z,7.60
2022-11-29T21:12:17.536Z,7.59
2022-11-29T21:14:52.726Z,7.60
2022-11-29T21:17:33.946Z,7.60
2022-11-29T21:20:07.719Z,7.59
2022-11-29T21:22:51.434Z,7.57
2022-11-29T21:25:31.232Z,7.57
2022-11-29T21:28:10.179Z,7.55
2022-11-29T21:30:45.476Z,7.53
2022-11-29T21:33:18.329Z,7.49
2022-11-29T21:35:54.052Z,7.50
2022-11-29T21:38:35.984Z,7.50
2022-11-29T21:41:08.277Z,7.49
2022-11-29T21:44:05.636Z,7.49
2022-11-29T21:46:38.558Z,7.48
2022-11-29T21:49:13.097Z,7.48
2022-11-29T21:51:45.645Z,7.49
2022-11-29T21:54:20.914Z,7.47
2022-11-29T21:56:52.865Z,7.47
2022-11-29T21:59:27.422Z,7.45
2022-11-29T22:02:02.563Z,7.46
2022-11-29T22:04:42.704Z,7.45
2022-11-29T22:07:19.753Z,7.44
2022-11-29T22:09:54.445Z,7.45
2022-11-29T22:12:34.135Z,7.46
2022-11-29T22:15:08.979Z,7.46
2022-11-29T22:17:52.211Z,7.48
2022-11-29T22:20:26.763Z,7.49
2022-11-29T22:23:00.456Z,7.51
2022-11-29T22:25:40.235Z,7.52
2022-11-29T22:28:13.477Z,7.53
2022-11-29T22:30:47.495Z,7.55
2022-11-29T22:33:23.544Z,7.57
2022-11-29T22:35:57.834Z,7.60
2022-11-29T22:38:34.034Z,7.61
2022-11-29T22:41:10.576Z,7.61
2022-11-29T22:43:45.864Z,7.62
2022-11-29T22:46:22.860Z,7.60
2022-11-29T22:48:56.811Z,7.62
2022-11-29T22:51:31.167Z,7.63
2022-11-29T22:54:07.085Z,7.62
2022-11-29T22:56:44.823Z,7.62
2022-11-29T22:59:17.314Z,7.63
2022-11-29T23:02:00.281Z,7.61
2022-11-29T23:04:33.438Z,7.61
2022-11-29T23:07:08.016Z,7.60
2022-11-29T23:09:40.961Z,7.61
2022-11-29T23:12:20.344Z,7.59
2022-11-29T23:14:58.306Z,7.57
2022-11-29T23:17:32.750Z,7.56
2022-11-29T23:20:09.926Z,7.57
2022-11-29T23:22:42.877Z,7.56
2022-11-29T23:25:15.016Z,7.56
2022-11-29T23:27:53.593Z,7.54
2022-11-29T23:30:29.751Z,7.53
2022-11-29T23:33:08.855Z,7.51
2022-11-29T23:35:42.489Z,7.51
2022-11-29T23:38:19.016Z,7.51
2022-11-29T23:40:53.448Z,7.52
2022-11-29T23:43:36.559Z,7.49
2022-11-29T23:46:12.061Z,7.49
2022-11-29T23:48:50.365Z,7.49
2022-11-29T23:51:27.871Z,7.49
2022-11-29T23:54:05.832Z,7.49
2022-11-29T23:56:39.328Z,7.49
2022-11-29T23:59:23.779Z,7.46
